Time;durP1;ratioP1;P1;durP2;ratioP2;P2;SDS_P1;SDS_P2;PMS_P1;PMS_P2;Temp;Humidity;BMP_temperature;BMP_pressure;BME280_temperature;BME280_humidity;BME280_pressure;Samples;Min_cycle;Max_cycle;Signal;HPM_P1;HPM_P2
2022/02/06 00:02:26;;;;;;;;;;;1.90;91.00;;;;;;5091335;28;19914;-72
2022/02/06 00:04:52;;;;;;;;;;;1.90;91.20;;;;;;5092671;28;19915;-72
2022/02/06 00:07:18;;;;;;;;;;;2.00;91.20;;;;;;5092403;28;20349;-72
2022/02/06 00:09:45;;;;;;;;;;;2.10;91.10;;;;;;5091324;28;20288;-72
2022/02/06 00:12:11;;;;;;;;;;;2.10;91.10;;;;;;5092099;28;19912;-72
2022/02/06 00:14:38;;;;;;;;;;;2.20;91.10;;;;;;5092497;28;19966;-72
2022/02/06 00:17:04;;;;;;;;;;;2.20;91.00;;;;;;5091178;28;19916;-72
2022/02/06 00:19:29;;;;;;;;;;;2.10;91.10;;;;;;5108176;28;19908;-72
2022/02/06 00:21:55;;;;;;;;;;;2.00;91.40;;;;;;5092378;28;19962;-72
2022/02/06 00:24:31;;;;;;;;;;;2.00;91.60;;;;;;5092288;28;19915;-72
2022/02/06 00:27:05;;;;;;;;;;;2.10;91.70;;;;;;5092304;28;19908;-72
2022/02/06 00:32:04;;;;;;;;;;;2.00;92.00;;;;;;5092205;28;19912;-72
2022/02/06 00:39:46;;;;;;;;;;;2.00;92.30;;;;;;5092286;28;19915;-72
2022/02/06 00:42:11;;;;;;;;;;;2.10;92.40;;;;;;5092160;28;19908;-72
2022/02/06 00:44:37;;;;;;;;;;;2.10;92.30;;;;;;5092178;28;20442;-72
2022/02/06 00:47:03;;;;;;;;;;;2.10;92.20;;;;;;5073821;28;19916;-72
2022/02/06 00:49:30;;;;;;;;;;;2.10;92.40;;;;;;5107959;28;19943;-72
2022/02/06 00:52:10;;;;;;;;;;;2.10;92.50;;;;;;5092111;28;19935;-72
2022/02/06 00:54:35;;;;;;;;;;;2.10;92.50;;;;;;5074087;28;19908;-72
2022/02/06 00:57:01;;;;;;;;;;;2.10;92.70;;;;;;5090689;28;19915;-72
2022/02/06 00:59:27;;;;;;;;;;;2.00;92.80;;;;;;5092117;28;19915;-72
2022/02/06 01:01:53;;;;;;;;;;;1.80;93.10;;;;;;5092088;28;19942;-72
2022/02/06 01:04:19;;;;;;;;;;;1.80;93.40;;;;;;5090639;28;19908;-72
2022/02/06 01:06:46;;;;;;;;;;;1.90;93.50;;;;;;5091999;28;19908;-72
2022/02/06 01:09:12;;;;;;;;;;;1.80;93.40;;;;;;5090727;28;19908;-72
2022/02/06 01:11:38;;;;;;;;;;;1.90;93.60;;;;;;5091907;28;19916;-72
2022/02/06 01:14:14;;;;;;;;;;;1.90;93.50;;;;;;5091966;28;19943;-72
2022/02/06 01:16:49;;;;;;;;;;;1.80;93.70;;;;;;5091827;28;20493;-72
2022/02/06 01:19:21;;;;;;;;;;;1.90;93.60;;;;;;5090670;28;19908;-72
2022/02/06 01:22:02;;;;;;;;;;;1.80;93.60;;;;;;5091892;28;19908;-72
2022/02/06 01:27:10;;;;;;;;;;;1.80;93.90;;;;;;5095693;28;20318;-72
2022/02/06 01:29:51;;;;;;;;;;;1.70;94.10;;;;;;5095460;28;19908;-72
2022/02/06 01:32:22;;;;;;;;;;;1.70;94.30;;;;;;5111005;28;19916;-72
2022/02/06 01:34:59;;;;;;;;;;;1.80;94.40;;;;;;5095357;28;19920;-72
2022/02/06 01:37:38;;;;;;;;;;;1.80;94.50;;;;;;5095167;28;19951;-72
2022/02/06 01:40:13;;;;;;;;;;;1.70;94.70;;;;;;5095261;28;19915;-72
2022/02/06 01:42:47;;;;;;;;;;;1.70;94.90;;;;;;5095087;28;19915;-72
2022/02/06 02:02:11;;;;;;;;;;;1.60;94.80;;;;;;5094689;28;20264;-72
2022/02/06 02:10:07;;;;;;;;;;;1.60;94.80;;;;;;5094654;28;19916;-72
2022/02/06 02:12:52;;;;;;;;;;;1.50;95.10;;;;;;5094334;28;20325;-72
2022/02/06 02:31:22;;;;;;;;;;;1.20;96.70;;;;;;5094220;28;20328;-72
2022/02/06 02:47:22;;;;;;;;;;;1.30;97.30;;;;;;5093751;28;20287;-72
2022/02/06 02:49:58;;;;;;;;;;;1.30;97.50;;;;;;5093919;28;19912;-72
2022/02/06 02:52:39;;;;;;;;;;;1.30;96.80;;;;;;5093709;28;20290;-72
2022/02/06 03:00:43;;;;;;;;;;;1.20;98.00;;;;;;5093657;28;19908;-72
2022/02/06 03:03:22;;;;;;;;;;;1.40;97.80;;;;;;5093542;28;19957;-72
2022/02/06 03:05:50;;;;;;;;;;;1.30;98.10;;;;;;5092281;28;19908;-72
2022/02/06 03:08:16;;;;;;;;;;;1.40;98.30;;;;;;5093561;28;19908;-72
2022/02/06 03:10:43;;;;;;;;;;;1.40;97.70;;;;;;5093381;28;19919;-72
2022/02/06 03:13:11;;;;;;;;;;;1.40;97.60;;;;;;5093369;28;19969;-72
2022/02/06 03:18:04;;;;;;;;;;;1.60;97.60;;;;;;5093282;28;19930;-72
2022/02/06 03:20:31;;;;;;;;;;;1.50;97.60;;;;;;5093381;28;20287;-72
2022/02/06 03:23:01;;;;;;;;;;;1.50;97.80;;;;;;5093240;28;19908;-72
2022/02/06 03:25:27;;;;;;;;;;;1.40;97.90;;;;;;5091908;28;19912;-72
2022/02/06 03:27:53;;;;;;;;;;;1.40;98.20;;;;;;5093089;28;20295;-72
2022/02/06 03:30:19;;;;;;;;;;;1.40;98.30;;;;;;5093160;28;19912;-72
2022/02/06 03:32:45;;;;;;;;;;;1.30;98.40;;;;;;5091752;28;20395;-72
2022/02/06 03:35:11;;;;;;;;;;;1.30;98.70;;;;;;5093091;28;19908;-72
2022/02/06 03:37:37;;;;;;;;;;;1.30;98.90;;;;;;5092880;28;20383;-72
2022/02/06 03:40:05;;;;;;;;;;;1.30;98.90;;;;;;5091687;28;19908;-72
2022/02/06 03:42:36;;;;;;;;;;;1.40;98.90;;;;;;5092866;28;19930;-72
2022/02/06 03:45:06;;;;;;;;;;;1.40;98.80;;;;;;5092906;28;20372;-72
2022/02/06 03:47:56;;;;;;;;;;;1.40;98.50;;;;;;5092133;28;19916;-72
2022/02/06 03:50:20;;;;;;;;;;;1.40;98.50;;;;;;5092822;28;20449;-72
2022/02/06 03:52:51;;;;;;;;;;;1.50;98.30;;;;;;5091349;28;19912;-72
2022/02/06 03:55:20;;;;;;;;;;;1.50;98.20;;;;;;5092715;28;19912;-72
2022/02/06 03:57:46;;;;;;;;;;;1.50;98.10;;;;;;5092746;28;19908;-72
2022/02/06 04:00:12;;;;;;;;;;;1.50;98.10;;;;;;5092696;28;19908;-72
2022/02/06 04:02:38;;;;;;;;;;;1.50;98.10;;;;;;5091573;28;19961;-72
2022/02/06 04:05:04;;;;;;;;;;;1.50;98.00;;;;;;5092697;28;19915;-72
2022/02/06 04:07:29;;;;;;;;;;;1.50;97.90;;;;;;5092447;28;20372;-72
2022/02/06 04:09:57;;;;;;;;;;;1.50;98.00;;;;;;5091568;28;20286;-72
2022/02/06 04:12:23;;;;;;;;;;;1.40;97.80;;;;;;5091184;28;19918;-72
2022/02/06 04:15:00;;;;;;;;;;;1.30;98.00;;;;;;5092515;28;20303;-72
2022/02/06 04:17:28;;;;;;;;;;;1.30;98.10;;;;;;5092261;28;19951;-72
2022/02/06 04:19:53;;;;;;;;;;;1.20;98.00;;;;;;5091422;28;19908;-72
2022/02/06 04:22:20;;;;;;;;;;;1.20;98.30;;;;;;5092514;28;20257;-72
2022/02/06 04:24:46;;;;;;;;;;;1.30;98.50;;;;;;5091226;28;20380;-72
2022/02/06 04:27:11;;;;;;;;;;;1.40;98.20;;;;;;5092345;28;19919;-72
2022/02/06 04:29:37;;;;;;;;;;;1.40;98.20;;;;;;5092325;28;20305;-72
2022/02/06 04:32:06;;;;;;;;;;;1.30;98.10;;;;;;5092088;28;19912;-72
2022/02/06 04:34:31;;;;;;;;;;;1.30;98.00;;;;;;5092371;28;19914;-72
2022/02/06 05:14:48;;;;;;;;;;;1.40;96.80;;;;;;5095592;28;20379;-72
2022/02/06 05:23:19;;;;;;;;;;;1.30;96.70;;;;;;5095526;28;19908;-72
2022/02/06 05:28:33;;;;;;;;;;;1.10;96.80;;;;;;5095505;28;20060;-72
2022/02/06 05:33:30;;;;;;;;;;;1.00;97.10;;;;;;5095350;28;19908;-72
2022/02/06 05:35:56;;;;;;;;;;;1.10;97.20;;;;;;5095134;28;20003;-72
2022/02/06 05:38:22;;;;;;;;;;;1.10;97.00;;;;;;5095234;28;19915;-72
2022/02/06 05:40:47;;;;;;;;;;;1.00;97.10;;;;;;5095169;28;19943;-72
2022/02/06 05:43:13;;;;;;;;;;;1.00;97.40;;;;;;5110905;28;19914;-72
2022/02/06 05:45:39;;;;;;;;;;;1.00;97.40;;;;;;5095270;28;20266;-72
2022/02/06 05:48:04;;;;;;;;;;;1.00;97.40;;;;;;5095674;28;19920;-72
2022/02/06 05:50:30;;;;;;;;;;;1.00;97.20;;;;;;5095426;28;19916;-72
2022/02/06 05:52:57;;;;;;;;;;;1.10;97.30;;;;;;5094863;28;19912;-72
2022/02/06 05:55:23;;;;;;;;;;;1.20;97.10;;;;;;5094941;28;19931;-72
2022/02/06 05:57:49;;;;;;;;;;;1.30;96.90;;;;;;5094583;28;19912;-72
2022/02/06 06:00:14;;;;;;;;;;;1.30;96.80;;;;;;5093694;28;20333;-72
2022/02/06 06:02:40;;;;;;;;;;;1.40;96.40;;;;;;5094706;28;19946;-72
2022/02/06 06:05:06;;;;;;;;;;;1.40;96.30;;;;;;5094800;28;20205;-72
2022/02/06 06:07:32;;;;;;;;;;;1.30;96.40;;;;;;5094564;28;19915;-72
2022/02/06 06:09:57;;;;;;;;;;;1.40;96.30;;;;;;5094451;28;19908;-72
2022/02/06 06:12:23;;;;;;;;;;;1.40;96.10;;;;;;5094479;28;19919;-72
2022/02/06 06:14:48;;;;;;;;;;;1.40;96.30;;;;;;5094548;28;19908;-72
2022/02/06 06:17:14;;;;;;;;;;;1.50;96.20;;;;;;5093206;28;20361;-72
2022/02/06 06:19:46;;;;;;;;;;;1.40;96.30;;;;;;5092808;28;19920;-72
2022/02/06 06:22:13;;;;;;;;;;;1.40;96.10;;;;;;5093038;28;19908;-72
2022/02/06 06:24:42;;;;;;;;;;;1.40;96.00;;;;;;5094373;28;19912;-72
2022/02/06 06:27:08;;;;;;;;;;;1.50;96.20;;;;;;5092934;28;19923;-72
2022/02/06 06:29:34;;;;;;;;;;;1.40;96.00;;;;;;5109916;28;19908;-72
2022/02/06 06:31:59;;;;;;;;;;;1.50;95.60;;;;;;5093836;28;19912;-72
2022/02/06 06:34:25;;;;;;;;;;;1.50;95.20;;;;;;5094245;28;19908;-72
2022/02/06 06:36:52;;;;;;;;;;;1.60;94.90;;;;;;5082206;28;20348;-72
2022/02/06 06:39:30;;;;;;;;;;;1.70;94.50;;;;;;5077348;28;20391;-71
2022/02/06 06:41:56;;;;;;;;;;;1.80;93.80;;;;;;5090830;28;19915;-72
2022/02/06 06:44:21;;;;;;;;;;;1.90;93.30;;;;;;5074744;28;19909;-72
2022/02/06 06:46:47;;;;;;;;;;;1.90;92.80;;;;;;5072034;28;19933;-72
2022/02/06 06:49:12;;;;;;;;;;;2.00;92.70;;;;;;5073616;28;20022;-72
2022/02/06 06:51:38;;;;;;;;;;;2.00;92.40;;;;;;5090945;28;20022;-72
2022/02/06 06:54:11;;;;;;;;;;;2.10;92.00;;;;;;5073533;28;19912;-72
2022/02/06 06:56:44;;;;;;;;;;;2.10;91.80;;;;;;5071864;28;20009;-72
2022/02/06 06:59:26;;;;;;;;;;;2.10;91.50;;;;;;5082510;28;20386;-72
2022/02/06 07:02:04;;;;;;;;;;;2.10;91.50;;;;;;5093612;28;19939;-72
2022/02/06 07:04:30;;;;;;;;;;;2.00;91.40;;;;;;5092194;28;20011;-73
2022/02/06 07:06:56;;;;;;;;;;;1.90;91.60;;;;;;5093509;28;20007;-72
2022/02/06 07:09:23;;;;;;;;;;;1.90;91.60;;;;;;5088227;28;19915;-72
2022/02/06 07:11:48;;;;;;;;;;;1.80;91.40;;;;;;5073217;28;19947;-72
2022/02/06 07:14:14;;;;;;;;;;;1.90;90.90;;;;;;5073012;28;19908;-72
2022/02/06 07:16:40;;;;;;;;;;;1.90;90.50;;;;;;5085493;28;20394;-72
2022/02/06 07:19:05;;;;;;;;;;;1.90;90.50;;;;;;5093338;28;19915;-72
2022/02/06 07:21:34;;;;;;;;;;;2.00;90.20;;;;;;5092949;28;19934;-72
2022/02/06 07:24:00;;;;;;;;;;;2.10;90.10;;;;;;5091477;28;19953;-72
2022/02/06 07:26:26;;;;;;;;;;;2.10;89.80;;;;;;5093015;28;20279;-72
2022/02/06 07:28:58;;;;;;;;;;;2.20;89.80;;;;;;5093089;28;19908;-72
2022/02/06 07:31:23;;;;;;;;;;;2.30;88.80;;;;;;5092966;28;19912;-72
2022/02/06 07:33:49;;;;;;;;;;;2.40;89.30;;;;;;5092975;28;19939;-72
2022/02/06 07:36:17;;;;;;;;;;;2.50;88.00;;;;;;5091448;28;20376;-72
2022/02/06 07:38:44;;;;;;;;;;;2.50;87.40;;;;;;5092932;28;20364;-72
2022/02/06 07:41:10;;;;;;;;;;;2.50;87.00;;;;;;5092920;28;20280;-72
2022/02/06 07:43:36;;;;;;;;;;;2.60;87.00;;;;;;5086365;28;19915;-73
2022/02/06 07:46:06;;;;;;;;;;;2.60;86.00;;;;;;5072787;28;19912;-72
2022/02/06 07:48:32;;;;;;;;;;;2.60;85.30;;;;;;5071312;28;19945;-72
2022/02/06 07:50:58;;;;;;;;;;;2.60;85.40;;;;;;5086492;28;19916;-72
2022/02/06 07:53:24;;;;;;;;;;;2.70;85.60;;;;;;5093042;28;19912;-73
2022/02/06 07:55:50;;;;;;;;;;;2.80;85.10;;;;;;5092544;28;19908;-72
2022/02/06 07:58:15;;;;;;;;;;;2.80;84.00;;;;;;5074350;28;19920;-72
2022/02/06 08:00:41;;;;;;;;;;;2.80;83.70;;;;;;5092559;28;19912;-73
2022/02/06 08:03:07;;;;;;;;;;;2.80;83.00;;;;;;5092115;28;20318;-72
2022/02/06 08:05:32;;;;;;;;;;;2.80;82.40;;;;;;5092867;28;20010;-72
2022/02/06 08:08:00;;;;;;;;;;;2.80;82.60;;;;;;5092412;28;19912;-72
2022/02/06 08:10:27;;;;;;;;;;;2.80;83.00;;;;;;5092542;28;20398;-72
2022/02/06 08:13:05;;;;;;;;;;;2.80;82.20;;;;;;5092123;28;19935;-72
2022/02/06 08:15:31;;;;;;;;;;;2.80;82.80;;;;;;5071000;28;19953;-72
2022/02/06 08:17:57;;;;;;;;;;;2.90;82.00;;;;;;5071151;28;19908;-73
2022/02/06 08:20:23;;;;;;;;;;;3.00;81.60;;;;;;5072683;28;19920;-73
2022/02/06 08:22:48;;;;;;;;;;;2.90;81.00;;;;;;5072091;28;20383;-72
2022/02/06 08:25:15;;;;;;;;;;;3.00;81.20;;;;;;5072124;28;19909;-72
2022/02/06 08:27:41;;;;;;;;;;;3.10;80.90;;;;;;5070888;28;19916;-72
2022/02/06 08:30:07;;;;;;;;;;;3.10;80.30;;;;;;5072203;28;19908;-72
2022/02/06 08:32:33;;;;;;;;;;;3.20;80.30;;;;;;5070658;28;19912;-72
2022/02/06 08:34:58;;;;;;;;;;;3.10;80.10;;;;;;5075668;28;19911;-72
2022/02/06 08:37:24;;;;;;;;;;;3.10;79.90;;;;;;5074785;28;19909;-72
2022/02/06 08:39:50;;;;;;;;;;;3.20;80.00;;;;;;5076120;28;20339;-73
2022/02/06 08:42:16;;;;;;;;;;;3.10;79.90;;;;;;5075964;28;20384;-73
2022/02/06 08:44:42;;;;;;;;;;;3.20;80.20;;;;;;5091094;28;20272;-72
2022/02/06 08:47:09;;;;;;;;;;;3.40;79.70;;;;;;5094861;28;19920;-73
2022/02/06 08:49:36;;;;;;;;;;;3.40;79.30;;;;;;5092176;28;19961;-72
2022/02/06 08:52:02;;;;;;;;;;;3.50;79.20;;;;;;5075619;28;20057;-72
2022/02/06 08:54:31;;;;;;;;;;;3.70;79.20;;;;;;5075607;28;19952;-72
2022/02/06 08:57:01;;;;;;;;;;;3.90;78.70;;;;;;5074337;28;20286;-72
2022/02/06 08:59:30;;;;;;;;;;;3.80;78.10;;;;;;5075803;28;20009;-72
2022/02/06 09:01:56;;;;;;;;;;;3.80;77.90;;;;;;5075734;28;19908;-72
2022/02/06 09:04:22;;;;;;;;;;;3.90;78.00;;;;;;5075532;28;20011;-72
2022/02/06 09:06:47;;;;;;;;;;;4.10;77.40;;;;;;5075283;28;19974;-72
2022/02/06 09:09:15;;;;;;;;;;;4.30;77.00;;;;;;5075434;28;20003;-72
2022/02/06 09:11:40;;;;;;;;;;;4.30;76.50;;;;;;5073966;28;19912;-73
2022/02/06 09:14:06;;;;;;;;;;;4.60;76.40;;;;;;5084006;28;20097;-72
2022/02/06 09:16:31;;;;;;;;;;;4.70;75.50;;;;;;5088455;28;20264;-72
2022/02/06 09:18:57;;;;;;;;;;;4.70;74.90;;;;;;5075332;28;20003;-72
2022/02/06 09:21:23;;;;;;;;;;;4.70;74.50;;;;;;5073170;28;19909;-72
2022/02/06 09:23:49;;;;;;;;;;;4.80;74.50;;;;;;5074250;28;20203;-73
2022/02/06 09:26:15;;;;;;;;;;;4.90;74.80;;;;;;5074347;28;19974;-72
2022/02/06 09:28:41;;;;;;;;;;;5.00;73.70;;;;;;5085081;28;19909;-73
2022/02/06 09:31:09;;;;;;;;;;;5.10;73.70;;;;;;5095626;28;20030;-73
2022/02/06 09:36:00;;;;;;;;;;;5.30;73.00;;;;;;5094827;28;19995;-72
2022/02/06 09:38:26;;;;;;;;;;;5.40;72.30;;;;;;5095151;28;19957;-73
2022/02/06 09:40:52;;;;;;;;;;;5.50;71.20;;;;;;5095077;28;20284;-72
2022/02/06 09:43:18;;;;;;;;;;;5.40;70.20;;;;;;5095035;28;19909;-72
2022/02/06 09:45:46;;;;;;;;;;;5.50;70.60;;;;;;5093946;28;19909;-73
2022/02/06 09:48:13;;;;;;;;;;;5.70;70.10;;;;;;5094989;28;19923;-73
2022/02/06 09:50:41;;;;;;;;;;;6.10;70.30;;;;;;5094775;28;19938;-72
2022/02/06 09:53:07;;;;;;;;;;;6.20;69.30;;;;;;5094927;28;19954;-73
2022/02/06 09:55:33;;;;;;;;;;;6.20;68.80;;;;;;5093638;28;19916;-72
2022/02/06 09:58:57;;;;;;;;;;;5.80;68.80;;;;;;5095209;28;20384;-72
2022/02/06 10:00:46;;;;;;;;;;;5.80;68.80;;;;;;5080448;28;19915;-72
2022/02/06 10:03:12;;;;;;;;;;;6.40;67.60;;;;;;5094689;28;19908;-73
2022/02/06 10:05:39;;;;;;;;;;;7.00;65.80;;;;;;5094602;28;19927;-72
2022/02/06 10:08:12;;;;;;;;;;;7.50;65.40;;;;;;5095165;28;20386;-72
2022/02/06 10:10:40;;;;;;;;;;;7.80;61.70;;;;;;5094685;28;19908;-72
2022/02/06 10:13:06;;;;;;;;;;;8.20;59.70;;;;;;5094545;28;19953;-72
2022/02/06 10:15:32;;;;;;;;;;;8.60;59.20;;;;;;5094453;28;19909;-72
2022/02/06 10:17:57;;;;;;;;;;;8.70;58.60;;;;;;5094820;28;19953;-72
2022/02/06 10:20:34;;;;;;;;;;;9.50;57.70;;;;;;5093364;28;19908;-73
2022/02/06 10:23:04;;;;;;;;;;;9.80;56.60;;;;;;5093692;28;20395;-73
2022/02/06 10:25:31;;;;;;;;;;;10.20;55.60;;;;;;5089893;28;20295;-72
2022/02/06 10:30:39;;;;;;;;;;;10.00;53.60;;;;;;5079747;28;19908;-72
2022/02/06 10:33:05;;;;;;;;;;;9.80;53.80;;;;;;5074428;28;19986;-72
2022/02/06 10:35:35;;;;;;;;;;;10.00;54.60;;;;;;5094079;28;19990;-72
2022/02/06 10:38:03;;;;;;;;;;;10.60;53.40;;;;;;5094098;28;20295;-72
2022/02/06 10:40:28;;;;;;;;;;;11.00;52.20;;;;;;5094035;28;20276;-72
2022/02/06 10:42:54;;;;;;;;;;;10.80;51.00;;;;;;5093659;28;19916;-72
2022/02/06 10:45:26;;;;;;;;;;;11.80;52.10;;;;;;5093790;28;19922;-72
2022/02/06 10:47:54;;;;;;;;;;;11.40;48.70;;;;;;5093842;28;20295;-72
2022/02/06 10:50:24;;;;;;;;;;;11.60;50.80;;;;;;5093815;28;19953;-73
2022/02/06 10:52:50;;;;;;;;;;;11.80;49.80;;;;;;5088111;28;19958;-73
2022/02/06 10:55:17;;;;;;;;;;;12.00;49.20;;;;;;5081032;28;19909;-73
2022/02/06 10:57:56;;;;;;;;;;;11.10;50.40;;;;;;5083116;28;19934;-73
2022/02/06 11:00:25;;;;;;;;;;;11.50;50.90;;;;;;5092563;28;19912;-73
2022/02/06 11:03:02;;;;;;;;;;;11.20;50.00;;;;;;5093326;28;20360;-73
2022/02/06 11:05:35;;;;;;;;;;;11.10;51.30;;;;;;5093526;28;20390;-74
2022/02/06 11:08:02;;;;;;;;;;;11.30;51.60;;;;;;5093388;28;20428;-73
2022/02/06 11:10:30;;;;;;;;;;;10.70;51.10;;;;;;5083806;28;19970;-74
2022/02/06 11:13:01;;;;;;;;;;;11.30;51.20;;;;;;5071674;28;19912;-74
2022/02/06 11:15:29;;;;;;;;;;;11.40;50.60;;;;;;5071969;28;19912;-74
2022/02/06 11:18:28;;;;;;;;;;;11.20;50.40;;;;;;5072908;28;19962;-74
2022/02/06 11:20:55;;;;;;;;;;;10.80;49.90;;;;;;5061391;28;19909;-74
2022/02/06 11:23:21;;;;;;;;;;;10.50;51.80;;;;;;5076107;28;19951;-73
2022/02/06 11:25:47;;;;;;;;;;;10.40;51.10;;;;;;5072849;28;19956;-74
2022/02/06 11:28:13;;;;;;;;;;;10.80;51.20;;;;;;5082531;28;19908;-74
2022/02/06 11:30:39;;;;;;;;;;;11.20;50.80;;;;;;5092176;28;20253;-74
2022/02/06 11:33:06;;;;;;;;;;;11.20;50.70;;;;;;5090916;28;20393;-74
2022/02/06 11:35:32;;;;;;;;;;;10.00;52.30;;;;;;5089443;28;19908;-73
2022/02/06 11:43:54;;;;;;;;;;;9.50;54.30;;;;;;5091434;28;19908;-74
2022/02/06 11:46:29;;;;;;;;;;;9.10;55.50;;;;;;5092587;28;19916;-73
2022/02/06 11:49:07;;;;;;;;;;;9.40;56.80;;;;;;5080267;22;20441;-72
2022/02/06 11:51:33;;;;;;;;;;;8.70;57.40;;;;;;5018634;28;19947;-72
2022/02/06 11:53:58;;;;;;;;;;;8.70;58.00;;;;;;5053277;28;20344;-72
2022/02/06 11:56:30;;;;;;;;;;;8.50;58.40;;;;;;5053004;28;20376;-73
2022/02/06 11:59:11;;;;;;;;;;;8.70;58.40;;;;;;5053110;28;19916;-72
2022/02/06 12:01:37;;;;;;;;;;;8.40;57.70;;;;;;5053618;28;19970;-72
2022/02/06 12:04:22;;;;;;;;;;;8.50;58.70;;;;;;5053052;28;20319;-73
2022/02/06 12:06:48;;;;;;;;;;;8.50;59.10;;;;;;5053293;28;19915;-73
2022/02/06 12:09:15;;;;;;;;;;;8.30;60.50;;;;;;5051627;28;20011;-73
2022/02/06 12:11:40;;;;;;;;;;;8.20;60.90;;;;;;5053516;28;19921;-72
2022/02/06 12:14:06;;;;;;;;;;;7.90;61.70;;;;;;5053183;28;19992;-72
2022/02/06 12:16:39;;;;;;;;;;;7.60;63.40;;;;;;5052098;28;19916;-73
2022/02/06 12:19:23;;;;;;;;;;;7.60;63.50;;;;;;5053201;28;19920;-73
2022/02/06 12:21:49;;;;;;;;;;;7.50;64.00;;;;;;5053282;28;19908;-73
2022/02/06 12:24:34;;;;;;;;;;;7.40;64.20;;;;;;5053369;28;20364;-72
2022/02/06 12:27:19;;;;;;;;;;;7.40;65.10;;;;;;5053452;28;19909;-73
2022/02/06 12:29:50;;;;;;;;;;;7.40;65.00;;;;;;5052094;28;19955;-73
2022/02/06 12:32:36;;;;;;;;;;;7.40;65.00;;;;;;5051987;28;19960;-73
2022/02/06 12:37:51;;;;;;;;;;;7.30;64.60;;;;;;5055490;28;19980;-74
2022/02/06 12:40:17;;;;;;;;;;;7.00;64.00;;;;;;5054013;28;19999;-73
2022/02/06 12:42:44;;;;;;;;;;;7.00;65.10;;;;;;5053239;28;19908;-73
2022/02/06 12:45:20;;;;;;;;;;;7.00;66.00;;;;;;5052920;28;20093;-71
2022/02/06 12:47:47;;;;;;;;;;;6.90;66.20;;;;;;5052835;28;20245;-73
2022/02/06 12:50:33;;;;;;;;;;;6.90;66.50;;;;;;5051248;28;19909;-73
2022/02/06 12:52:59;;;;;;;;;;;6.80;66.60;;;;;;5052994;28;19963;-73
2022/02/06 12:55:30;;;;;;;;;;;6.80;66.50;;;;;;5052454;28;20273;-73
2022/02/06 12:57:56;;;;;;;;;;;6.90;68.10;;;;;;5052984;28;19916;-73
2022/02/06 13:00:34;;;;;;;;;;;7.00;67.60;;;;;;5035215;28;20288;-73
2022/02/06 13:03:16;;;;;;;;;;;6.80;66.90;;;;;;5051547;28;19959;-71
2022/02/06 13:05:48;;;;;;;;;;;6.50;67.40;;;;;;5052717;28;20029;-71
2022/02/06 13:08:13;;;;;;;;;;;6.40;67.90;;;;;;5052489;28;19908;-71
2022/02/06 13:10:48;;;;;;;;;;;6.10;68.20;;;;;;5068311;28;19909;-71
2022/02/06 13:13:15;;;;;;;;;;;6.00;69.10;;;;;;5052791;28;19928;-71
2022/02/06 13:15:53;;;;;;;;;;;6.10;69.90;;;;;;5052680;28;20142;-72
2022/02/06 13:18:43;;;;;;;;;;;6.20;69.80;;;;;;5052367;28;19981;-72
2022/02/06 13:21:25;;;;;;;;;;;6.20;69.80;;;;;;5054548;28;19909;-72
2022/02/06 13:31:48;;;;;;;;;;;6.20;69.20;;;;;;5055719;28;20300;-72
2022/02/06 13:34:23;;;;;;;;;;;6.20;69.10;;;;;;5055571;28;19915;-72
2022/02/06 13:36:52;;;;;;;;;;;6.00;69.30;;;;;;5038051;28;19916;-72
2022/02/06 13:39:26;;;;;;;;;;;5.80;70.00;;;;;;5054374;28;19909;-72
2022/02/06 13:41:52;;;;;;;;;;;5.70;70.30;;;;;;5055701;28;19992;-72
2022/02/06 13:44:19;;;;;;;;;;;5.70;70.80;;;;;;5053980;28;20332;-71
2022/02/06 13:46:46;;;;;;;;;;;5.70;70.60;;;;;;5055259;28;19954;-71
2022/02/06 13:49:11;;;;;;;;;;;5.80;70.70;;;;;;5054181;28;20015;-71
2022/02/06 13:51:50;;;;;;;;;;;5.70;71.20;;;;;;5037285;28;19999;-71
2022/02/06 13:54:16;;;;;;;;;;;5.70;71.40;;;;;;5054101;28;20360;-71
2022/02/06 13:56:42;;;;;;;;;;;5.70;70.90;;;;;;5070678;28;19963;-72
2022/02/06 13:59:08;;;;;;;;;;;5.60;71.80;;;;;;5070718;28;19909;-72
2022/02/06 14:01:40;;;;;;;;;;;5.80;71.90;;;;;;5055379;28;19913;-72
2022/02/06 14:04:07;;;;;;;;;;;5.70;71.20;;;;;;5055361;28;19915;-72
2022/02/06 14:06:36;;;;;;;;;;;5.70;71.60;;;;;;5053688;28;19912;-73
2022/02/06 14:09:25;;;;;;;;;;;5.60;71.70;;;;;;5053446;28;19908;-73
2022/02/06 14:12:04;;;;;;;;;;;5.60;71.70;;;;;;5054734;28;19970;-72
2022/02/06 14:14:31;;;;;;;;;;;5.60;72.20;;;;;;5070513;28;20368;-72
2022/02/06 14:16:57;;;;;;;;;;;5.50;72.40;;;;;;5053517;28;19916;-72
2022/02/06 14:19:30;;;;;;;;;;;5.60;73.00;;;;;;5054867;28;19965;-72
2022/02/06 14:21:56;;;;;;;;;;;5.60;72.50;;;;;;5054770;28;20364;-72
2022/02/06 14:24:22;;;;;;;;;;;5.50;72.20;;;;;;5070461;28;19916;-74
2022/02/06 14:27:00;;;;;;;;;;;5.50;72.40;;;;;;5054306;28;19909;-71
2022/02/06 14:29:27;;;;;;;;;;;5.50;72.70;;;;;;5054036;28;20361;-71
2022/02/06 14:31:53;;;;;;;;;;;5.50;72.80;;;;;;5053472;28;19913;-71
2022/02/06 14:34:20;;;;;;;;;;;5.50;72.90;;;;;;5054010;28;19909;-71
2022/02/06 14:37:06;;;;;;;;;;;5.40;72.80;;;;;;5054068;28;19941;-71
2022/02/06 14:39:35;;;;;;;;;;;5.40;73.40;;;;;;5053822;28;20323;-71
2022/02/06 14:42:09;;;;;;;;;;;5.50;73.20;;;;;;5053896;28;19920;-71
2022/02/06 14:44:35;;;;;;;;;;;5.50;73.00;;;;;;5052568;28;19905;-71
2022/02/06 14:47:01;;;;;;;;;;;5.40;73.00;;;;;;5053804;28;19913;-71
2022/02/06 14:49:29;;;;;;;;;;;5.30;73.00;;;;;;5053773;28;19917;-71
2022/02/06 14:51:55;;;;;;;;;;;5.40;73.40;;;;;;5053570;28;20011;-74
2022/02/06 14:54:30;;;;;;;;;;;5.40;73.80;;;;;;5053627;28;19952;-71
2022/02/06 14:56:56;;;;;;;;;;;5.30;72.70;;;;;;5053510;28;19908;-71
2022/02/06 14:59:22;;;;;;;;;;;5.40;73.20;;;;;;5053978;28;19915;-70
2022/02/06 15:01:50;;;;;;;;;;;5.40;73.00;;;;;;5035679;28;20350;-71
2022/02/06 15:04:16;;;;;;;;;;;5.30;73.20;;;;;;5053454;28;19909;-70
2022/02/06 15:06:41;;;;;;;;;;;5.20;73.00;;;;;;5052131;28;19939;-71
2022/02/06 15:09:07;;;;;;;;;;;5.20;73.20;;;;;;5053143;28;20258;-71
2022/02/06 15:11:33;;;;;;;;;;;5.20;73.50;;;;;;5053319;28;19917;-71
2022/02/06 15:13:59;;;;;;;;;;;5.20;73.50;;;;;;5053374;28;19913;-71
2022/02/06 15:16:28;;;;;;;;;;;5.20;73.40;;;;;;5053305;28;19948;-71
2022/02/06 15:18:58;;;;;;;;;;;5.30;73.60;;;;;;5053244;28;20365;-71
2022/02/06 15:21:24;;;;;;;;;;;5.20;73.40;;;;;;5053042;28;19909;-71
2022/02/06 15:23:49;;;;;;;;;;;5.20;73.60;;;;;;5053308;28;20378;-71
2022/02/06 15:26:15;;;;;;;;;;;5.20;73.30;;;;;;5050643;28;20318;-71
2022/02/06 15:28:41;;;;;;;;;;;5.20;72.90;;;;;;5031895;28;19936;-71
2022/02/06 15:31:07;;;;;;;;;;;5.30;72.10;;;;;;5031769;28;19920;-71
2022/02/06 15:33:32;;;;;;;;;;;5.30;71.80;;;;;;5032985;28;19916;-71
2022/02/06 15:35:58;;;;;;;;;;;5.50;71.00;;;;;;5032947;28;20269;-71
2022/02/06 15:38:25;;;;;;;;;;;5.60;69.50;;;;;;5033038;28;19960;-71
2022/02/06 15:40:52;;;;;;;;;;;5.70;68.90;;;;;;5044682;28;19917;-71
2022/02/06 15:43:21;;;;;;;;;;;5.70;68.60;;;;;;5052101;28;19913;-71
2022/02/06 15:45:46;;;;;;;;;;;5.80;68.80;;;;;;5052643;28;20252;-71
2022/02/06 15:48:12;;;;;;;;;;;5.80;67.90;;;;;;5052697;28;19921;-71
2022/02/06 15:50:38;;;;;;;;;;;5.90;67.30;;;;;;5052713;28;19962;-71
2022/02/06 15:53:03;;;;;;;;;;;5.90;67.40;;;;;;5052565;28;19912;-70
2022/02/06 15:55:29;;;;;;;;;;;6.00;67.20;;;;;;5052715;28;19909;-72
2022/02/06 15:57:55;;;;;;;;;;;6.00;67.00;;;;;;5051296;28;19995;-72
2022/02/06 16:00:20;;;;;;;;;;;6.00;67.20;;;;;;5053028;28;19913;-71
2022/02/06 16:02:46;;;;;;;;;;;6.00;67.20;;;;;;5052405;28;19937;-71
2022/02/06 16:05:13;;;;;;;;;;;6.10;67.50;;;;;;5052023;28;20078;-71
2022/02/06 16:07:40;;;;;;;;;;;6.10;67.80;;;;;;5052543;28;20392;-72
2022/02/06 16:10:06;;;;;;;;;;;6.10;67.80;;;;;;5052489;28;19923;-71
2022/02/06 16:12:32;;;;;;;;;;;6.20;68.20;;;;;;5051153;28;19913;-72
2022/02/06 16:14:57;;;;;;;;;;;6.20;68.80;;;;;;5052442;28;20278;-72
2022/02/06 16:17:23;;;;;;;;;;;6.30;68.90;;;;;;5052474;28;19940;-72
2022/02/06 16:19:48;;;;;;;;;;;6.30;68.50;;;;;;5052564;28;19996;-71
2022/02/06 16:22:14;;;;;;;;;;;6.40;68.40;;;;;;5052252;28;19909;-71
2022/02/06 16:24:42;;;;;;;;;;;6.30;68.40;;;;;;5052456;28;19909;-71
2022/02/06 16:27:09;;;;;;;;;;;6.40;68.80;;;;;;5051066;28;19965;-71
2022/02/06 16:29:35;;;;;;;;;;;6.50;68.00;;;;;;5050945;28;19909;-71
2022/02/06 16:32:01;;;;;;;;;;;6.40;68.30;;;;;;5052444;28;20360;-71
2022/02/06 16:34:27;;;;;;;;;;;6.50;68.60;;;;;;5052286;28;19916;-71
2022/02/06 16:36:53;;;;;;;;;;;6.50;69.10;;;;;;5052149;28;19909;-71
2022/02/06 16:39:23;;;;;;;;;;;6.50;69.00;;;;;;5052194;28;19970;-71
2022/02/06 16:41:48;;;;;;;;;;;6.50;68.80;;;;;;5052149;28;20017;-71
2022/02/06 16:44:14;;;;;;;;;;;6.60;68.60;;;;;;5052072;28;19948;-71
2022/02/06 16:46:40;;;;;;;;;;;6.60;68.70;;;;;;5051961;28;20288;-71
2022/02/06 16:49:05;;;;;;;;;;;6.60;68.20;;;;;;5051895;28;19962;-72
2022/02/06 16:51:31;;;;;;;;;;;6.70;68.20;;;;;;5052072;28;20008;-71
2022/02/06 16:53:57;;;;;;;;;;;6.70;67.70;;;;;;5050778;28;19909;-72
2022/02/06 16:56:22;;;;;;;;;;;6.70;68.70;;;;;;5055891;28;19909;-71
2022/02/06 16:58:48;;;;;;;;;;;6.80;67.50;;;;;;5056149;28;20280;-71